sensor_id;sensor_type;location;lat;lon;timestamp;P1;durP1;ratioP1;P2;durP2;ratioP2
18265;SDS011;9259;48.194;16.322;2023-05-28T00:01:34;6.13;;;1.80;;
18265;SDS011;9259;48.194;16.322;2023-05-28T00:04:03;3.23;;;1.27;;
18265;SDS011;9259;48.194;16.322;2023-05-28T00:06:30;3.93;;;1.40;;
18265;SDS011;9259;48.194;16.322;2023-05-28T00:08:58;3.83;;;1.17;;
18265;SDS011;9259;48.194;16.322;2023-05-28T00:11:25;3.40;;;1.40;;
18265;SDS011;9259;48.194;16.322;2023-05-28T00:14:01;3.77;;;1.30;;
18265;SDS011;9259;48.194;16.322;2023-05-28T00:16:29;4.30;;;1.20;;
18265;SDS011;9259;48.194;16.322;2023-05-28T00:19:01;2.87;;;1.10;;
18265;SDS011;9259;48.194;16.322;2023-05-28T00:21:29;3.77;;;1.10;;
18265;SDS011;9259;48.194;16.322;2023-05-28T00:23:58;2.63;;;1.10;;
18265;SDS011;9259;48.194;16.322;2023-05-28T00:26:26;4.63;;;1.10;;
18265;SDS011;9259;48.194;16.322;2023-05-28T00:28:54;5.73;;;1.23;;
18265;SDS011;9259;48.194;16.322;2023-05-28T00:31:21;4.83;;;1.40;;
18265;SDS011;9259;48.194;16.322;2023-05-28T00:33:50;4.73;;;1.30;;
18265;SDS011;9259;48.194;16.322;2023-05-28T00:36:19;3.23;;;1.20;;
18265;SDS011;9259;48.194;16.322;2023-05-28T00:38:47;7.13;;;1.20;;
18265;SDS011;9259;48.194;16.322;2023-05-28T00:41:17;10.87;;;1.90;;
18265;SDS011;9259;48.194;16.322;2023-05-28T00:43:46;3.93;;;1.13;;
18265;SDS011;9259;48.194;16.322;2023-05-28T00:46:13;2.80;;;1.40;;
18265;SDS011;9259;48.194;16.322;2023-05-28T00:48:44;4.10;;;1.37;;
18265;SDS011;9259;48.194;16.322;2023-05-28T00:51:12;4.10;;;1.40;;
18265;SDS011;9259;48.194;16.322;2023-05-28T00:53:41;2.70;;;1.00;;
18265;SDS011;9259;48.194;16.322;2023-05-28T00:56:09;5.47;;;1.37;;
18265;SDS011;9259;48.194;16.322;2023-05-28T00:58:38;3.93;;;1.33;;
18265;SDS011;9259;48.194;16.322;2023-05-28T01:01:06;11.93;;;2.03;;
18265;SDS011;9259;48.194;16.322;2023-05-28T01:03:34;3.87;;;1.57;;
18265;SDS011;9259;48.194;16.322;2023-05-28T01:06:04;4.27;;;1.57;;
18265;SDS011;9259;48.194;16.322;2023-05-28T01:08:35;2.97;;;1.30;;
18265;SDS011;9259;48.194;16.322;2023-05-28T01:11:04;4.23;;;1.27;;
18265;SDS011;9259;48.194;16.322;2023-05-28T01:13:33;4.47;;;1.13;;
18265;SDS011;9259;48.194;16.322;2023-05-28T01:16:01;6.57;;;1.93;;
18265;SDS011;9259;48.194;16.322;2023-05-28T01:18:29;4.80;;;1.33;;
18265;SDS011;9259;48.194;16.322;2023-05-28T01:20:58;7.03;;;2.43;;
18265;SDS011;9259;48.194;16.322;2023-05-28T01:23:27;4.10;;;1.30;;
18265;SDS011;9259;48.194;16.322;2023-05-28T01:25:56;2.40;;;1.00;;
18265;SDS011;9259;48.194;16.322;2023-05-28T01:28:25;4.37;;;1.40;;
18265;SDS011;9259;48.194;16.322;2023-05-28T01:30:52;3.67;;;1.30;;
18265;SDS011;9259;48.194;16.322;2023-05-28T01:33:20;5.20;;;1.83;;
18265;SDS011;9259;48.194;16.322;2023-05-28T01:35:48;3.37;;;0.93;;
18265;SDS011;9259;48.194;16.322;2023-05-28T01:38:17;2.80;;;1.50;;
18265;SDS011;9259;48.194;16.322;2023-05-28T01:40:48;10.53;;;1.93;;
18265;SDS011;9259;48.194;16.322;2023-05-28T01:43:18;3.10;;;1.20;;
18265;SDS011;9259;48.194;16.322;2023-05-28T01:45:46;2.80;;;1.30;;
18265;SDS011;9259;48.194;16.322;2023-05-28T01:48:14;4.70;;;1.03;;
18265;SDS011;9259;48.194;16.322;2023-05-28T01:50:42;2.83;;;1.33;;
18265;SDS011;9259;48.194;16.322;2023-05-28T01:53:10;2.80;;;1.00;;
18265;SDS011;9259;48.194;16.322;2023-05-28T01:55:37;4.27;;;1.57;;
18265;SDS011;9259;48.194;16.322;2023-05-28T01:58:05;5.37;;;1.13;;
18265;SDS011;9259;48.194;16.322;2023-05-28T02:00:35;2.90;;;1.17;;
18265;SDS011;9259;48.194;16.322;2023-05-28T02:03:09;5.27;;;1.30;;
18265;SDS011;9259;48.194;16.322;2023-05-28T02:05:37;5.50;;;1.30;;
18265;SDS011;9259;48.194;16.322;2023-05-28T02:08:05;4.57;;;1.90;;
18265;SDS011;9259;48.194;16.322;2023-05-28T02:10:33;5.23;;;1.60;;
18265;SDS011;9259;48.194;16.322;2023-05-28T02:13:01;3.37;;;1.60;;
18265;SDS011;9259;48.194;16.322;2023-05-28T02:15:28;2.53;;;1.43;;
18265;SDS011;9259;48.194;16.322;2023-05-28T02:17:57;5.20;;;1.23;;
18265;SDS011;9259;48.194;16.322;2023-05-28T02:20:25;7.67;;;1.40;;
18265;SDS011;9259;48.194;16.322;2023-05-28T02:22:52;5.03;;;1.57;;
18265;SDS011;9259;48.194;16.322;2023-05-28T02:25:20;4.90;;;1.17;;
18265;SDS011;9259;48.194;16.322;2023-05-28T02:27:48;5.73;;;1.83;;
18265;SDS011;9259;48.194;16.322;2023-05-28T02:30:15;5.40;;;1.70;;
18265;SDS011;9259;48.194;16.322;2023-05-28T02:32:43;4.17;;;1.30;;
18265;SDS011;9259;48.194;16.322;2023-05-28T02:35:11;3.43;;;1.63;;
18265;SDS011;9259;48.194;16.322;2023-05-28T02:37:39;3.10;;;1.30;;
18265;SDS011;9259;48.194;16.322;2023-05-28T02:40:07;7.13;;;1.60;;
18265;SDS011;9259;48.194;16.322;2023-05-28T02:42:35;3.90;;;1.47;;
18265;SDS011;9259;48.194;16.322;2023-05-28T02:45:03;3.20;;;1.40;;
18265;SDS011;9259;48.194;16.322;2023-05-28T02:47:31;3.83;;;1.63;;
18265;SDS011;9259;48.194;16.322;2023-05-28T02:49:59;5.27;;;1.47;;
18265;SDS011;9259;48.194;16.322;2023-05-28T02:52:28;5.03;;;1.37;;
18265;SDS011;9259;48.194;16.322;2023-05-28T02:54:55;4.93;;;1.37;;
18265;SDS011;9259;48.194;16.322;2023-05-28T02:57:22;5.27;;;1.30;;
18265;SDS011;9259;48.194;16.322;2023-05-28T02:59:50;2.83;;;1.33;;
18265;SDS011;9259;48.194;16.322;2023-05-28T03:02:17;3.23;;;1.43;;
18265;SDS011;9259;48.194;16.322;2023-05-28T03:04:45;3.80;;;1.47;;
18265;SDS011;9259;48.194;16.322;2023-05-28T03:07:12;3.73;;;1.70;;
18265;SDS011;9259;48.194;16.322;2023-05-28T03:09:42;4.33;;;1.10;;
18265;SDS011;9259;48.194;16.322;2023-05-28T03:12:09;4.97;;;1.37;;
18265;SDS011;9259;48.194;16.322;2023-05-28T03:14:36;9.20;;;2.20;;
18265;SDS011;9259;48.194;16.322;2023-05-28T03:17:04;6.20;;;1.67;;
18265;SDS011;9259;48.194;16.322;2023-05-28T03:19:31;5.07;;;1.90;;
18265;SDS011;9259;48.194;16.322;2023-05-28T03:21:59;7.60;;;2.27;;
18265;SDS011;9259;48.194;16.322;2023-05-28T03:24:26;2.20;;;1.10;;
18265;SDS011;9259;48.194;16.322;2023-05-28T03:26:55;4.27;;;1.40;;
18265;SDS011;9259;48.194;16.322;2023-05-28T03:29:23;7.23;;;1.40;;
18265;SDS011;9259;48.194;16.322;2023-05-28T03:31:51;3.80;;;1.27;;
18265;SDS011;9259;48.194;16.322;2023-05-28T03:34:18;6.07;;;1.77;;
18265;SDS011;9259;48.194;16.322;2023-05-28T03:36:46;5.20;;;1.47;;
18265;SDS011;9259;48.194;16.322;2023-05-28T03:39:13;7.63;;;1.67;;
18265;SDS011;9259;48.194;16.322;2023-05-28T03:41:41;5.93;;;1.27;;
18265;SDS011;9259;48.194;16.322;2023-05-28T03:44:11;5.67;;;2.00;;
18265;SDS011;9259;48.194;16.322;2023-05-28T03:46:38;7.43;;;1.53;;
18265;SDS011;9259;48.194;16.322;2023-05-28T03:49:06;3.77;;;1.20;;
18265;SDS011;9259;48.194;16.322;2023-05-28T03:51:34;3.10;;;1.47;;
18265;SDS011;9259;48.194;16.322;2023-05-28T03:54:02;5.63;;;1.47;;
18265;SDS011;9259;48.194;16.322;2023-05-28T03:56:29;5.33;;;1.50;;
18265;SDS011;9259;48.194;16.322;2023-05-28T03:58:59;4.23;;;1.50;;
18265;SDS011;9259;48.194;16.322;2023-05-28T04:01:28;2.57;;;1.37;;
18265;SDS011;9259;48.194;16.322;2023-05-28T04:03:55;5.53;;;1.57;;
18265;SDS011;9259;48.194;16.322;2023-05-28T04:06:23;7.50;;;1.30;;
18265;SDS011;9259;48.194;16.322;2023-05-28T04:08:50;3.17;;;1.43;;
18265;SDS011;9259;48.194;16.322;2023-05-28T04:11:18;4.63;;;1.43;;
18265;SDS011;9259;48.194;16.322;2023-05-28T04:13:47;7.33;;;2.00;;
18265;SDS011;9259;48.194;16.322;2023-05-28T04:16:14;6.60;;;1.70;;
18265;SDS011;9259;48.194;16.322;2023-05-28T04:18:43;4.17;;;1.50;;
18265;SDS011;9259;48.194;16.322;2023-05-28T04:21:11;4.23;;;1.40;;
18265;SDS011;9259;48.194;16.322;2023-05-28T04:23:38;4.47;;;1.50;;
18265;SDS011;9259;48.194;16.322;2023-05-28T04:26:06;6.87;;;1.43;;
18265;SDS011;9259;48.194;16.322;2023-05-28T04:28:33;6.57;;;1.60;;
18265;SDS011;9259;48.194;16.322;2023-05-28T04:31:01;5.40;;;1.90;;
18265;SDS011;9259;48.194;16.322;2023-05-28T04:33:29;6.13;;;1.70;;
18265;SDS011;9259;48.194;16.322;2023-05-28T04:35:59;6.00;;;1.70;;
18265;SDS011;9259;48.194;16.322;2023-05-28T04:38:27;4.97;;;1.77;;
18265;SDS011;9259;48.194;16.322;2023-05-28T04:40:57;4.37;;;1.27;;
18265;SDS011;9259;48.194;16.322;2023-05-28T04:43:25;3.23;;;1.30;;
18265;SDS011;9259;48.194;16.322;2023-05-28T04:45:55;3.00;;;1.30;;
18265;SDS011;9259;48.194;16.322;2023-05-28T04:48:24;4.93;;;1.30;;
18265;SDS011;9259;48.194;16.322;2023-05-28T04:50:52;5.70;;;1.47;;
18265;SDS011;9259;48.194;16.322;2023-05-28T04:53:21;5.53;;;1.13;;
18265;SDS011;9259;48.194;16.322;2023-05-28T04:55:48;2.50;;;1.00;;
18265;SDS011;9259;48.194;16.322;2023-05-28T04:58:16;4.20;;;1.10;;
18265;SDS011;9259;48.194;16.322;2023-05-28T05:00:43;3.67;;;1.87;;
18265;SDS011;9259;48.194;16.322;2023-05-28T05:03:11;3.60;;;1.40;;
18265;SDS011;9259;48.194;16.322;2023-05-28T05:05:40;4.87;;;1.33;;
18265;SDS011;9259;48.194;16.322;2023-05-28T05:08:07;2.73;;;1.30;;
18265;SDS011;9259;48.194;16.322;2023-05-28T05:10:40;4.77;;;1.40;;
18265;SDS011;9259;48.194;16.322;2023-05-28T05:13:07;3.17;;;1.40;;
18265;SDS011;9259;48.194;16.322;2023-05-28T05:15:35;3.47;;;1.43;;
18265;SDS011;9259;48.194;16.322;2023-05-28T05:18:03;3.27;;;1.00;;
18265;SDS011;9259;48.194;16.322;2023-05-28T05:20:30;3.60;;;1.60;;
18265;SDS011;9259;48.194;16.322;2023-05-28T05:22:58;3.87;;;1.40;;
18265;SDS011;9259;48.194;16.322;2023-05-28T05:25:25;5.63;;;1.40;;
18265;SDS011;9259;48.194;16.322;2023-05-28T05:27:54;2.90;;;1.40;;
18265;SDS011;9259;48.194;16.322;2023-05-28T05:30:22;4.20;;;1.23;;
18265;SDS011;9259;48.194;16.322;2023-05-28T05:32:49;4.03;;;1.33;;
18265;SDS011;9259;48.194;16.322;2023-05-28T05:35:16;3.70;;;1.27;;
18265;SDS011;9259;48.194;16.322;2023-05-28T05:37:50;3.90;;;1.33;;
18265;SDS011;9259;48.194;16.322;2023-05-28T05:40:18;4.43;;;1.20;;
18265;SDS011;9259;48.194;16.322;2023-05-28T05:42:45;3.77;;;1.20;;
18265;SDS011;9259;48.194;16.322;2023-05-28T05:45:14;7.37;;;1.47;;
18265;SDS011;9259;48.194;16.322;2023-05-28T05:47:42;4.83;;;1.27;;
18265;SDS011;9259;48.194;16.322;2023-05-28T05:50:10;4.27;;;1.47;;
18265;SDS011;9259;48.194;16.322;2023-05-28T05:52:38;1.53;;;0.83;;
18265;SDS011;9259;48.194;16.322;2023-05-28T05:55:06;2.50;;;1.25;;
18265;SDS011;9259;48.194;16.322;2023-05-28T05:57:34;7.15;;;1.30;;
18265;SDS011;9259;48.194;16.322;2023-05-28T06:00:02;4.78;;;1.38;;
18265;SDS011;9259;48.194;16.322;2023-05-28T06:02:32;3.75;;;1.27;;
18265;SDS011;9259;48.194;16.322;2023-05-28T06:04:59;6.95;;;1.75;;
18265;SDS011;9259;48.194;16.322;2023-05-28T06:07:27;2.42;;;1.15;;
18265;SDS011;9259;48.194;16.322;2023-05-28T06:09:54;5.13;;;1.80;;
18265;SDS011;9259;48.194;16.322;2023-05-28T06:12:25;4.05;;;1.35;;
18265;SDS011;9259;48.194;16.322;2023-05-28T06:14:52;3.15;;;1.48;;
18265;SDS011;9259;48.194;16.322;2023-05-28T06:17:21;4.63;;;1.35;;
18265;SDS011;9259;48.194;16.322;2023-05-28T06:19:49;3.35;;;1.20;;
18265;SDS011;9259;48.194;16.322;2023-05-28T06:22:17;2.65;;;1.00;;
18265;SDS011;9259;48.194;16.322;2023-05-28T06:24:45;3.45;;;1.35;;
18265;SDS011;9259;48.194;16.322;2023-05-28T06:27:14;4.38;;;1.35;;
18265;SDS011;9259;48.194;16.322;2023-05-28T06:29:42;4.22;;;1.35;;
18265;SDS011;9259;48.194;16.322;2023-05-28T06:32:09;2.13;;;1.00;;
18265;SDS011;9259;48.194;16.322;2023-05-28T06:34:38;3.55;;;1.67;;
18265;SDS011;9259;48.194;16.322;2023-05-28T06:37:07;3.63;;;1.42;;
18265;SDS011;9259;48.194;16.322;2023-05-28T06:39:35;3.92;;;1.77;;
18265;SDS011;9259;48.194;16.322;2023-05-28T06:42:03;3.40;;;1.40;;
18265;SDS011;9259;48.194;16.322;2023-05-28T06:44:31;4.03;;;1.65;;
18265;SDS011;9259;48.194;16.322;2023-05-28T06:46:59;3.22;;;1.33;;
18265;SDS011;9259;48.194;16.322;2023-05-28T06:49:27;2.95;;;1.38;;
18265;SDS011;9259;48.194;16.322;2023-05-28T06:51:54;2.55;;;1.30;;
18265;SDS011;9259;48.194;16.322;2023-05-28T06:54:23;6.40;;;1.75;;
18265;SDS011;9259;48.194;16.322;2023-05-28T06:56:50;4.55;;;1.42;;
18265;SDS011;9259;48.194;16.322;2023-05-28T06:59:18;3.47;;;1.42;;
18265;SDS011;9259;48.194;16.322;2023-05-28T07:01:45;4.50;;;1.50;;
18265;SDS011;9259;48.194;16.322;2023-05-28T07:04:13;4.72;;;2.10;;
18265;SDS011;9259;48.194;16.322;2023-05-28T07:06:40;8.60;;;1.48;;
18265;SDS011;9259;48.194;16.322;2023-05-28T07:09:08;4.05;;;1.58;;
18265;SDS011;9259;48.194;16.322;2023-05-28T07:11:37;2.05;;;1.10;;
18265;SDS011;9259;48.194;16.322;2023-05-28T07:14:05;4.63;;;1.30;;
18265;SDS011;9259;48.194;16.322;2023-05-28T07:16:32;3.63;;;1.58;;
18265;SDS011;9259;48.194;16.322;2023-05-28T07:19:00;4.65;;;1.60;;
18265;SDS011;9259;48.194;16.322;2023-05-28T07:21:27;3.92;;;1.35;;
18265;SDS011;9259;48.194;16.322;2023-05-28T07:23:55;7.13;;;2.10;;
18265;SDS011;9259;48.194;16.322;2023-05-28T07:26:22;21.55;;;2.30;;
18265;SDS011;9259;48.194;16.322;2023-05-28T07:28:52;2.95;;;1.38;;
18265;SDS011;9259;48.194;16.322;2023-05-28T07:31:19;9.35;;;2.35;;
18265;SDS011;9259;48.194;16.322;2023-05-28T07:33:48;3.67;;;1.50;;
18265;SDS011;9259;48.194;16.322;2023-05-28T07:36:16;4.25;;;1.45;;
18265;SDS011;9259;48.194;16.322;2023-05-28T07:38:43;5.10;;;1.42;;
18265;SDS011;9259;48.194;16.322;2023-05-28T07:41:11;4.22;;;1.67;;
18265;SDS011;9259;48.194;16.322;2023-05-28T07:43:38;2.83;;;1.50;;
18265;SDS011;9259;48.194;16.322;2023-05-28T07:46:07;3.38;;;1.40;;
18265;SDS011;9259;48.194;16.322;2023-05-28T07:48:34;2.80;;;1.48;;
18265;SDS011;9259;48.194;16.322;2023-05-28T07:51:02;3.42;;;1.60;;
18265;SDS011;9259;48.194;16.322;2023-05-28T07:53:30;3.65;;;1.27;;
18265;SDS011;9259;48.194;16.322;2023-05-28T07:55:57;5.57;;;1.60;;
18265;SDS011;9259;48.194;16.322;2023-05-28T07:58:26;4.95;;;1.75;;
18265;SDS011;9259;48.194;16.322;2023-05-28T08:00:53;3.80;;;1.38;;
18265;SDS011;9259;48.194;16.322;2023-05-28T08:03:22;4.53;;;1.42;;
18265;SDS011;9259;48.194;16.322;2023-05-28T08:05:53;4.72;;;1.20;;
18265;SDS011;9259;48.194;16.322;2023-05-28T08:08:20;4.55;;;1.73;;
18265;SDS011;9259;48.194;16.322;2023-05-28T08:10:48;5.72;;;2.05;;
18265;SDS011;9259;48.194;16.322;2023-05-28T08:13:16;5.43;;;1.60;;
18265;SDS011;9259;48.194;16.322;2023-05-28T08:15:43;3.72;;;1.75;;
18265;SDS011;9259;48.194;16.322;2023-05-28T08:18:11;6.35;;;1.80;;
18265;SDS011;9259;48.194;16.322;2023-05-28T08:20:40;4.18;;;1.90;;
18265;SDS011;9259;48.194;16.322;2023-05-28T08:23:07;5.22;;;1.75;;
18265;SDS011;9259;48.194;16.322;2023-05-28T08:25:35;4.05;;;1.83;;
18265;SDS011;9259;48.194;16.322;2023-05-28T08:28:02;4.03;;;1.58;;
18265;SDS011;9259;48.194;16.322;2023-05-28T08:30:35;5.13;;;1.50;;
18265;SDS011;9259;48.194;16.322;2023-05-28T08:33:03;5.10;;;1.85;;
18265;SDS011;9259;48.194;16.322;2023-05-28T08:35:31;7.43;;;2.15;;
18265;SDS011;9259;48.194;16.322;2023-05-28T08:38:00;3.58;;;1.67;;
18265;SDS011;9259;48.194;16.322;2023-05-28T08:40:27;5.18;;;1.48;;
18265;SDS011;9259;48.194;16.322;2023-05-28T08:42:57;4.38;;;1.75;;
18265;SDS011;9259;48.194;16.322;2023-05-28T08:45:24;4.82;;;2.28;;
18265;SDS011;9259;48.194;16.322;2023-05-28T08:47:52;5.25;;;2.08;;
18265;SDS011;9259;48.194;16.322;2023-05-28T08:50:20;3.58;;;1.90;;
18265;SDS011;9259;48.194;16.322;2023-05-28T08:52:50;4.60;;;1.70;;
18265;SDS011;9259;48.194;16.322;2023-05-28T08:55:19;4.03;;;1.48;;
18265;SDS011;9259;48.194;16.322;2023-05-28T08:57:47;3.30;;;1.77;;
18265;SDS011;9259;48.194;16.322;2023-05-28T09:00:15;3.42;;;1.50;;
18265;SDS011;9259;48.194;16.322;2023-05-28T09:02:43;4.88;;;1.70;;
18265;SDS011;9259;48.194;16.322;2023-05-28T09:05:12;3.28;;;1.48;;
18265;SDS011;9259;48.194;16.322;2023-05-28T09:07:39;3.95;;;1.70;;
18265;SDS011;9259;48.194;16.322;2023-05-28T09:10:07;4.30;;;2.10;;
18265;SDS011;9259;48.194;16.322;2023-05-28T09:12:38;2.08;;;1.58;;
18265;SDS011;9259;48.194;16.322;2023-05-28T09:15:07;10.32;;;2.30;;
18265;SDS011;9259;48.194;16.322;2023-05-28T09:17:35;4.25;;;1.70;;
18265;SDS011;9259;48.194;16.322;2023-05-28T09:20:10;8.13;;;2.13;;
18265;SDS011;9259;48.194;16.322;2023-05-28T09:22:39;4.38;;;2.00;;
18265;SDS011;9259;48.194;16.322;2023-05-28T09:25:07;5.32;;;2.03;;
18265;SDS011;9259;48.194;16.322;2023-05-28T09:27:35;3.03;;;1.52;;
18265;SDS011;9259;48.194;16.322;2023-05-28T09:30:05;4.43;;;1.98;;
18265;SDS011;9259;48.194;16.322;2023-05-28T09:32:34;6.15;;;2.22;;
18265;SDS011;9259;48.194;16.322;2023-05-28T09:35:04;10.25;;;2.00;;
18265;SDS011;9259;48.194;16.322;2023-05-28T09:37:32;6.30;;;1.95;;
18265;SDS011;9259;48.194;16.322;2023-05-28T09:40:01;9.82;;;2.22;;
18265;SDS011;9259;48.194;16.322;2023-05-28T09:42:35;4.07;;;2.13;;
18265;SDS011;9259;48.194;16.322;2023-05-28T09:45:09;5.68;;;2.40;;
18265;SDS011;9259;48.194;16.322;2023-05-28T09:47:43;5.43;;;2.00;;
18265;SDS011;9259;48.194;16.322;2023-05-28T09:50:12;3.80;;;1.92;;
18265;SDS011;9259;48.194;16.322;2023-05-28T09:52:41;6.43;;;2.15;;
18265;SDS011;9259;48.194;16.322;2023-05-28T09:55:12;5.32;;;2.30;;
18265;SDS011;9259;48.194;16.322;2023-05-28T09:57:44;9.23;;;2.10;;
18265;SDS011;9259;48.194;16.322;2023-05-28T10:00:17;3.33;;;1.90;;
18265;SDS011;9259;48.194;16.322;2023-05-28T10:02:52;4.75;;;2.35;;
18265;SDS011;9259;48.194;16.322;2023-05-28T10:05:25;6.20;;;2.25;;
18265;SDS011;9259;48.194;16.322;2023-05-28T10:07:55;3.95;;;1.70;;
18265;SDS011;9259;48.194;16.322;2023-05-28T10:10:23;4.70;;;2.10;;
18265;SDS011;9259;48.194;16.322;2023-05-28T10:12:52;5.75;;;1.90;;
18265;SDS011;9259;48.194;16.322;2023-05-28T10:15:22;7.53;;;2.70;;
18265;SDS011;9259;48.194;16.322;2023-05-28T10:17:50;5.75;;;2.30;;
18265;SDS011;9259;48.194;16.322;2023-05-28T10:20:18;9.02;;;2.25;;
18265;SDS011;9259;48.194;16.322;2023-05-28T10:22:45;3.80;;;1.60;;
18265;SDS011;9259;48.194;16.322;2023-05-28T10:25:14;7.28;;;2.50;;
18265;SDS011;9259;48.194;16.322;2023-05-28T10:27:43;3.63;;;1.90;;
18265;SDS011;9259;48.194;16.322;2023-05-28T10:32:58;7.30;;;2.33;;
18265;SDS011;9259;48.194;16.322;2023-05-28T10:35:26;4.45;;;2.25;;
18265;SDS011;9259;48.194;16.322;2023-05-28T10:38:03;5.22;;;2.17;;
18265;SDS011;9259;48.194;16.322;2023-05-28T10:40:32;5.18;;;1.90;;
18265;SDS011;9259;48.194;16.322;2023-05-28T10:43:00;6.00;;;1.98;;
18265;SDS011;9259;48.194;16.322;2023-05-28T10:45:36;4.25;;;2.35;;
18265;SDS011;9259;48.194;16.322;2023-05-28T10:48:05;5.72;;;2.83;;
18265;SDS011;9259;48.194;16.322;2023-05-28T10:50:32;11.07;;;2.38;;
18265;SDS011;9259;48.194;16.322;2023-05-28T10:53:03;5.32;;;1.85;;
18265;SDS011;9259;48.194;16.322;2023-05-28T10:55:45;8.90;;;2.42;;
18265;SDS011;9259;48.194;16.322;2023-05-28T10:58:21;4.47;;;2.08;;
18265;SDS011;9259;48.194;16.322;2023-05-28T11:00:58;6.40;;;2.17;;
18265;SDS011;9259;48.194;16.322;2023-05-28T11:03:37;6.13;;;2.30;;
18265;SDS011;9259;48.194;16.322;2023-05-28T11:06:06;5.10;;;2.38;;
18265;SDS011;9259;48.194;16.322;2023-05-28T11:08:37;3.08;;;1.85;;
18265;SDS011;9259;48.194;16.322;2023-05-28T11:11:06;5.50;;;2.15;;
18265;SDS011;9259;48.194;16.322;2023-05-28T11:13:34;4.75;;;1.92;;
18265;SDS011;9259;48.194;16.322;2023-05-28T11:16:07;7.88;;;2.60;;
18265;SDS011;9259;48.194;16.322;2023-05-28T11:18:35;4.47;;;2.08;;
18265;SDS011;9259;48.194;16.322;2023-05-28T11:21:03;9.77;;;2.42;;
18265;SDS011;9259;48.194;16.322;2023-05-28T11:23:33;4.97;;;2.28;;
18265;SDS011;9259;48.194;16.322;2023-05-28T11:26:02;4.97;;;2.17;;
18265;SDS011;9259;48.194;16.322;2023-05-28T11:28:30;4.35;;;2.13;;
18265;SDS011;9259;48.194;16.322;2023-05-28T11:30:58;6.80;;;1.88;;
18265;SDS011;9259;48.194;16.322;2023-05-28T11:33:27;4.43;;;2.08;;
18265;SDS011;9259;48.194;16.322;2023-05-28T11:35:56;4.53;;;2.60;;
18265;SDS011;9259;48.194;16.322;2023-05-28T11:38:25;5.68;;;2.70;;
18265;SDS011;9259;48.194;16.322;2023-05-28T11:40:57;5.20;;;2.35;;
18265;SDS011;9259;48.194;16.322;2023-05-28T11:43:26;5.63;;;2.13;;
18265;SDS011;9259;48.194;16.322;2023-05-28T11:45:57;5.85;;;2.40;;
18265;SDS011;9259;48.194;16.322;2023-05-28T11:48:26;6.10;;;2.20;;
18265;SDS011;9259;48.194;16.322;2023-05-28T11:51:01;4.07;;;2.00;;
18265;SDS011;9259;48.194;16.322;2023-05-28T11:56:14;7.07;;;2.15;;
18265;SDS011;9259;48.194;16.322;2023-05-28T11:58:43;3.55;;;2.03;;
18265;SDS011;9259;48.194;16.322;2023-05-28T12:01:14;5.55;;;2.28;;
18265;SDS011;9259;48.194;16.322;2023-05-28T12:03:43;4.40;;;2.00;;
18265;SDS011;9259;48.194;16.322;2023-05-28T12:06:10;3.72;;;1.67;;
18265;SDS011;9259;48.194;16.322;2023-05-28T12:08:38;5.55;;;2.35;;
18265;SDS011;9259;48.194;16.322;2023-05-28T12:11:07;4.63;;;1.88;;
18265;SDS011;9259;48.194;16.322;2023-05-28T12:13:35;5.38;;;2.08;;
18265;SDS011;9259;48.194;16.322;2023-05-28T12:16:07;7.88;;;2.03;;
18265;SDS011;9259;48.194;16.322;2023-05-28T12:18:39;4.55;;;2.42;;
18265;SDS011;9259;48.194;16.322;2023-05-28T12:21:12;4.57;;;2.15;;
18265;SDS011;9259;48.194;16.322;2023-05-28T12:23:44;5.88;;;2.53;;
18265;SDS011;9259;48.194;16.322;2023-05-28T12:26:13;6.10;;;2.42;;
18265;SDS011;9259;48.194;16.322;2023-05-28T12:28:41;7.53;;;2.60;;
18265;SDS011;9259;48.194;16.322;2023-05-28T12:31:09;5.13;;;2.20;;
18265;SDS011;9259;48.194;16.322;2023-05-28T12:33:36;3.90;;;2.33;;
18265;SDS011;9259;48.194;16.322;2023-05-28T12:36:05;4.82;;;2.05;;
18265;SDS011;9259;48.194;16.322;2023-05-28T12:38:34;4.60;;;2.05;;
18265;SDS011;9259;48.194;16.322;2023-05-28T12:41:01;5.68;;;2.38;;
18265;SDS011;9259;48.194;16.322;2023-05-28T12:43:30;3.17;;;1.98;;
18265;SDS011;9259;48.194;16.322;2023-05-28T12:45:57;5.43;;;2.10;;
18265;SDS011;9259;48.194;16.322;2023-05-28T12:48:25;4.57;;;2.30;;
18265;SDS011;9259;48.194;16.322;2023-05-28T12:50:52;7.05;;;2.03;;
18265;SDS011;9259;48.194;16.322;2023-05-28T12:53:20;3.58;;;2.20;;
18265;SDS011;9259;48.194;16.322;2023-05-28T12:55:48;3.55;;;1.98;;
18265;SDS011;9259;48.194;16.322;2023-05-28T12:58:16;4.78;;;2.22;;
18265;SDS011;9259;48.194;16.322;2023-05-28T13:00:43;5.05;;;2.65;;
18265;SDS011;9259;48.194;16.322;2023-05-28T13:03:11;7.03;;;2.83;;
18265;SDS011;9259;48.194;16.322;2023-05-28T13:05:38;7.05;;;2.42;;
18265;SDS011;9259;48.194;16.322;2023-05-28T13:08:06;5.68;;;2.53;;
18265;SDS011;9259;48.194;16.322;2023-05-28T13:10:33;5.53;;;2.22;;
18265;SDS011;9259;48.194;16.322;2023-05-28T13:13:02;5.30;;;2.22;;
18265;SDS011;9259;48.194;16.322;2023-05-28T13:15:29;4.32;;;2.15;;
18265;SDS011;9259;48.194;16.322;2023-05-28T13:17:57;5.65;;;2.22;;
18265;SDS011;9259;48.194;16.322;2023-05-28T13:20:24;5.20;;;2.10;;
18265;SDS011;9259;48.194;16.322;2023-05-28T13:22:52;5.88;;;2.50;;
18265;SDS011;9259;48.194;16.322;2023-05-28T13:25:19;7.50;;;3.10;;
18265;SDS011;9259;48.194;16.322;2023-05-28T13:27:48;8.60;;;2.83;;
18265;SDS011;9259;48.194;16.322;2023-05-28T13:30:17;9.07;;;2.45;;
18265;SDS011;9259;48.194;16.322;2023-05-28T13:32:45;4.63;;;2.08;;
18265;SDS011;9259;48.194;16.322;2023-05-28T13:35:12;5.13;;;2.53;;
18265;SDS011;9259;48.194;16.322;2023-05-28T13:37:40;5.05;;;2.47;;
18265;SDS011;9259;48.194;16.322;2023-05-28T13:40:08;6.82;;;2.70;;
18265;SDS011;9259;48.194;16.322;2023-05-28T13:42:38;3.00;;;1.80;;
18265;SDS011;9259;48.194;16.322;2023-05-28T13:45:07;6.60;;;2.30;;
18265;SDS011;9259;48.194;16.322;2023-05-28T13:47:37;4.60;;;2.30;;
18265;SDS011;9259;48.194;16.322;2023-05-28T13:50:05;5.95;;;2.38;;
18265;SDS011;9259;48.194;16.322;2023-05-28T13:52:33;5.40;;;2.50;;
18265;SDS011;9259;48.194;16.322;2023-05-28T13:55:00;6.63;;;2.90;;
18265;SDS011;9259;48.194;16.322;2023-05-28T13:57:28;4.55;;;2.47;;
18265;SDS011;9259;48.194;16.322;2023-05-28T13:59:55;5.03;;;2.35;;
18265;SDS011;9259;48.194;16.322;2023-05-28T14:02:23;5.80;;;2.22;;
18265;SDS011;9259;48.194;16.322;2023-05-28T14:04:51;4.72;;;2.00;;
18265;SDS011;9259;48.194;16.322;2023-05-28T14:07:19;4.30;;;2.20;;
18265;SDS011;9259;48.194;16.322;2023-05-28T14:09:46;7.38;;;2.80;;
18265;SDS011;9259;48.194;16.322;2023-05-28T14:12:14;5.43;;;2.42;;
18265;SDS011;9259;48.194;16.322;2023-05-28T14:14:42;5.40;;;1.98;;
18265;SDS011;9259;48.194;16.322;2023-05-28T14:17:09;6.57;;;3.10;;
18265;SDS011;9259;48.194;16.322;2023-05-28T14:19:36;5.40;;;2.75;;
18265;SDS011;9259;48.194;16.322;2023-05-28T14:22:05;5.28;;;2.30;;
18265;SDS011;9259;48.194;16.322;2023-05-28T14:24:33;4.68;;;2.38;;
18265;SDS011;9259;48.194;16.322;2023-05-28T14:27:01;5.25;;;2.40;;
18265;SDS011;9259;48.194;16.322;2023-05-28T14:29:29;4.20;;;2.13;;
18265;SDS011;9259;48.194;16.322;2023-05-28T14:31:57;5.47;;;2.70;;
18265;SDS011;9259;48.194;16.322;2023-05-28T14:34:24;5.32;;;2.22;;
18265;SDS011;9259;48.194;16.322;2023-05-28T14:36:52;4.13;;;2.35;;
18265;SDS011;9259;48.194;16.322;2023-05-28T14:39:21;5.55;;;2.67;;
18265;SDS011;9259;48.194;16.322;2023-05-28T14:41:48;6.38;;;2.72;;
18265;SDS011;9259;48.194;16.322;2023-05-28T14:44:15;6.68;;;2.15;;
18265;SDS011;9259;48.194;16.322;2023-05-28T14:46:43;7.47;;;2.60;;
18265;SDS011;9259;48.194;16.322;2023-05-28T14:49:10;5.35;;;2.22;;
18265;SDS011;9259;48.194;16.322;2023-05-28T14:51:38;7.18;;;2.50;;
18265;SDS011;9259;48.194;16.322;2023-05-28T14:54:05;3.13;;;2.30;;
18265;SDS011;9259;48.194;16.322;2023-05-28T14:56:34;5.78;;;2.30;;
18265;SDS011;9259;48.194;16.322;2023-05-28T14:59:02;5.75;;;2.53;;
18265;SDS011;9259;48.194;16.322;2023-05-28T15:01:29;6.03;;;2.35;;